createdAt,value
2022-09-30T10:40:53.812Z,100526.94
2022-09-30T10:43:41.533Z,100618.91
2022-09-30T10:46:26.907Z,100620.59
2022-09-30T10:49:01.924Z,100636.44
2022-09-30T10:51:37.901Z,100638.91
2022-09-30T10:54:30.091Z,100636.63
2022-09-30T10:57:06.200Z,100632.66
2022-09-30T10:59:41.032Z,100628.72
2022-09-30T11:02:29.562Z,100627.31
2022-09-30T11:05:21.807Z,100643.56
2022-09-30T11:08:24.701Z,100638.22
2022-09-30T11:11:08.694Z,100645.63
2022-09-30T11:14:10.338Z,100651.94
2022-09-30T11:16:52.589Z,100580.25
2022-09-30T11:19:30.994Z,100622.44
2022-09-30T11:22:31.619Z,100653.94
2022-09-30T11:25:10.244Z,100652.06
2022-09-30T11:28:11.089Z,100594.22
2022-09-30T11:31:07.751Z,100663.94
2022-09-30T11:33:57.095Z,100670.19
2022-09-30T11:36:45.364Z,100668.28
2022-09-30T11:39:39.271Z,100673.56
2022-09-30T11:42:29.852Z,100584.03
2022-09-30T11:45:38.630Z,100666.03
2022-09-30T11:48:34.268Z,100681.44
2022-09-30T11:51:37.583Z,100607.28
2022-09-30T11:54:37.446Z,100691.00
2022-09-30T11:57:27.931Z,100694.66
2022-09-30T12:00:19.005Z,100618.09
2022-09-30T12:03:00.909Z,100680.78
2022-09-30T12:05:44.480Z,100703.84
2022-09-30T12:08:35.877Z,100681.81
2022-09-30T12:11:17.232Z,100714.06
2022-09-30T12:13:57.739Z,100715.28
2022-09-30T12:16:35.012Z,100712.84
2022-09-30T12:19:17.359Z,100724.94
2022-09-30T12:21:57.628Z,100731.41
2022-09-30T12:24:39.531Z,100733.50
2022-09-30T12:27:32.970Z,100718.84
2022-09-30T12:30:19.279Z,100717.16
2022-09-30T12:33:12.566Z,100732.28
2022-09-30T12:36:19.422Z,100738.41
2022-09-30T12:39:16.360Z,100742.97
2022-09-30T12:42:03.524Z,100736.09
2022-09-30T12:44:43.889Z,100716.41
2022-09-30T12:47:48.941Z,100735.25
2022-09-30T12:50:36.409Z,100675.25
2022-09-30T12:53:26.002Z,100742.56
2022-09-30T12:56:13.309Z,100692.94
2022-09-30T12:58:48.372Z,100718.44
2022-09-30T13:01:33.274Z,100718.69
2022-09-30T13:04:05.782Z,100794.19
2022-09-30T13:06:49.486Z,100800.00
2022-09-30T13:09:39.939Z,100809.59
2022-09-30T13:12:27.111Z,100745.34
2022-09-30T13:15:27.056Z,100822.94
2022-09-30T13:18:28.408Z,100798.06
2022-09-30T13:21:10.985Z,100823.78
2022-09-30T13:23:48.206Z,100828.75
2022-09-30T13:26:45.200Z,100831.28
2022-09-30T13:29:22.469Z,100845.38
2022-09-30T13:31:56.081Z,100841.66
2022-09-30T13:34:35.447Z,100842.09
2022-09-30T13:37:28.625Z,100838.34
2022-09-30T13:40:07.742Z,100861.22
2022-09-30T13:42:48.321Z,100865.38
2022-09-30T13:45:28.441Z,100850.06
2022-09-30T13:48:20.714Z,100859.16
2022-09-30T13:51:00.672Z,100869.97
2022-09-30T13:53:48.115Z,100881.84
2022-09-30T13:56:33.452Z,100812.94
2022-09-30T13:59:23.171Z,100883.50
2022-09-30T14:02:42.893Z,100888.53
2022-09-30T14:05:47.788Z,100821.06
2022-09-30T14:08:48.771Z,100890.81
2022-09-30T14:12:14.033Z,100874.22
2022-09-30T14:15:13.327Z,100888.28
2022-09-30T14:18:06.180Z,100897.03
2022-09-30T14:21:00.974Z,100807.75
2022-09-30T14:23:37.730Z,100892.44
2022-09-30T14:26:48.800Z,100911.59
2022-09-30T14:29:32.681Z,100914.09
2022-09-30T14:32:23.206Z,100919.09
2022-09-30T14:35:10.985Z,100908.06
2022-09-30T14:37:54.518Z,100919.88
2022-09-30T14:40:40.124Z,100835.19
2022-09-30T14:43:24.183Z,100842.28
2022-09-30T14:46:01.790Z,100858.47
2022-09-30T14:48:47.417Z,100921.19
2022-09-30T14:51:25.589Z,100921.19
2022-09-30T14:54:03.845Z,100849.34
2022-09-30T14:56:39.915Z,100915.78
2022-09-30T14:59:34.928Z,100910.41
2022-09-30T15:02:23.716Z,100838.13
2022-09-30T15:05:01.724Z,100849.53
2022-09-30T15:07:34.555Z,100912.50
2022-09-30T15:10:09.170Z,100915.88
2022-09-30T15:12:45.099Z,100881.97
2022-09-30T15:15:35.999Z,100917.09
2022-09-30T15:18:27.763Z,100908.63
2022-09-30T15:21:06.515Z,100905.53
2022-09-30T15:23:43.983Z,100815.34
2022-09-30T15:26:17.638Z,100869.38
2022-09-30T15:28:50.687Z,100895.53
2022-09-30T15:31:29.003Z,100843.78
2022-09-30T15:34:08.928Z,100887.22
2022-09-30T15:36:44.734Z,100888.88
2022-09-30T15:39:26.299Z,100805.78
2022-09-30T15:41:59.013Z,100865.19
2022-09-30T15:44:41.840Z,100884.75
2022-09-30T15:47:14.260Z,100886.63
2022-09-30T15:49:50.397Z,100875.59
2022-09-30T15:52:31.015Z,100878.31
2022-09-30T15:55:03.563Z,100855.63
2022-09-30T15:57:49.886Z,100872.88
2022-09-30T16:00:41.848Z,100883.25
2022-09-30T16:03:28.213Z,100870.19
2022-09-30T16:06:16.574Z,100876.22
2022-09-30T16:09:03.703Z,100772.13
2022-09-30T16:11:43.488Z,100784.59
2022-09-30T16:14:28.988Z,100778.38
2022-09-30T16:17:05.451Z,100778.38
2022-09-30T16:19:38.343Z,100855.66
2022-09-30T16:22:30.441Z,100846.50
2022-09-30T16:25:23.611Z,100755.13
2022-09-30T16:28:01.255Z,100698.66
2022-09-30T16:30:36.500Z,100822.81
2022-09-30T16:33:08.956Z,100830.72
2022-09-30T16:35:44.579Z,100821.59
2022-09-30T16:38:20.275Z,100742.69
2022-09-30T16:40:52.826Z,100818.69
2022-09-30T16:43:28.428Z,100818.88
2022-09-30T16:46:01.608Z,100814.91
2022-09-30T16:48:34.025Z,100807.84
2022-09-30T16:51:15.946Z,100751.38
2022-09-30T16:53:51.146Z,100817.41
2022-09-30T16:56:23.968Z,100822.00
2022-09-30T16:58:56.349Z,100805.78
2022-09-30T17:01:29.769Z,100823.22
2022-09-30T17:04:02.168Z,100826.13
2022-09-30T17:06:35.810Z,100825.31
2022-09-30T17:09:08.509Z,100821.16
2022-09-30T17:11:40.925Z,100811.59
2022-09-30T17:14:13.311Z,100809.13
2022-09-30T17:16:48.156Z,100818.03
2022-09-30T17:19:20.501Z,100805.78
2022-09-30T17:21:53.852Z,100802.47
2022-09-30T17:24:26.080Z,100804.34
2022-09-30T17:26:59.439Z,100800.19
2022-09-30T17:29:33.203Z,100797.47
2022-09-30T17:32:06.267Z,100786.69
2022-09-30T17:34:38.826Z,100783.56
2022-09-30T17:37:11.198Z,100786.25
2022-09-30T17:39:43.696Z,100795.19
2022-09-30T17:42:35.697Z,100804.53
2022-09-30T17:45:08.505Z,100781.50
2022-09-30T17:47:42.931Z,100778.59
2022-09-30T17:50:15.875Z,100781.28
2022-09-30T17:52:48.245Z,100768.00
2022-09-30T17:55:20.761Z,100748.91
2022-09-30T17:57:55.738Z,100766.75
2022-09-30T18:00:29.923Z,100769.66
2022-09-30T18:03:02.330Z,100768.22
2022-09-30T18:05:35.278Z,100768.41
2022-09-30T18:08:07.738Z,100751.38
2022-09-30T18:10:40.067Z,100755.13
2022-09-30T18:13:12.985Z,100761.78
2022-09-30T18:15:45.284Z,100759.28
2022-09-30T18:18:18.164Z,100765.50
2022-09-30T18:20:52.145Z,100765.91
2022-09-30T18:23:24.521Z,100760.53
2022-09-30T18:25:58.073Z,100757.19
2022-09-30T18:28:30.474Z,100757.19
2022-09-30T18:31:10.076Z,100755.97
2022-09-30T18:33:42.408Z,100750.56
2022-09-30T18:36:14.747Z,100723.56
2022-09-30T18:38:46.987Z,100760.97
2022-09-30T18:41:19.426Z,100753.69
2022-09-30T18:43:57.775Z,100667.91
2022-09-30T18:46:31.236Z,100740.81
2022-09-30T18:49:03.881Z,100723.75
2022-09-30T18:51:36.522Z,100749.13
2022-09-30T18:54:09.169Z,100749.50
2022-09-30T18:56:41.603Z,100751.81
2022-09-30T18:59:19.488Z,100746.81
2022-09-30T19:01:55.553Z,100757.22
2022-09-30T19:04:28.107Z,100753.06
2022-09-30T19:07:00.500Z,100755.94
2022-09-30T19:09:32.894Z,100765.47
2022-09-30T19:12:05.905Z,100765.09
2022-09-30T19:14:39.328Z,100757.00
2022-09-30T19:17:12.158Z,100758.22
2022-09-30T19:19:46.781Z,100727.66
2022-09-30T19:22:19.147Z,100758.84
2022-09-30T19:24:51.935Z,100758.41
2022-09-30T19:27:26.580Z,100763.34
2022-09-30T19:29:59.448Z,100753.22
2022-09-30T19:32:35.950Z,100748.84
2022-09-30T19:35:13.545Z,100725.63
2022-09-30T19:37:58.341Z,100747.41
2022-09-30T19:43:11.297Z,100744.69
2022-09-30T19:45:43.811Z,100749.28
2022-09-30T19:48:16.128Z,100750.31
2022-09-30T19:50:47.891Z,100751.31
2022-09-30T19:53:29.367Z,100739.72
2022-09-30T19:56:29.186Z,100744.91
2022-09-30T19:59:02.207Z,100751.34
2022-09-30T20:01:36.242Z,100743.06
2022-09-30T20:04:09.746Z,100749.69
2022-09-30T20:06:43.450Z,100747.41
2022-09-30T20:09:15.911Z,100746.78
2022-09-30T20:11:48.309Z,100751.75
2022-09-30T20:14:38.714Z,100739.91
2022-09-30T20:17:11.116Z,100740.34
2022-09-30T20:19:43.406Z,100728.53
2022-09-30T20:22:16.084Z,100730.19
2022-09-30T20:24:48.670Z,100725.59
2022-09-30T20:27:20.961Z,100721.44
2022-09-30T20:29:53.239Z,100721.91
2022-09-30T20:32:25.610Z,100726.44
2022-09-30T20:34:58.021Z,100639.66
2022-09-30T20:37:31.381Z,100718.34
2022-09-30T20:40:04.917Z,100717.75
2022-09-30T20:42:39.395Z,100717.75
2022-09-30T20:45:13.095Z,100711.06
2022-09-30T20:47:47.159Z,100694.50
2022-09-30T20:50:36.331Z,100685.78
2022-09-30T20:53:13.822Z,100712.13
2022-09-30T20:55:46.641Z,100719.81
2022-09-30T20:58:19.705Z,100711.91
2022-09-30T21:00:52.498Z,100700.06
2022-09-30T21:03:24.943Z,100709.44
2022-09-30T21:05:57.968Z,100718.53
2022-09-30T21:08:30.551Z,100705.28
2022-09-30T21:11:04.602Z,100723.31
2022-09-30T21:13:37.260Z,100716.25
2022-09-30T21:16:09.984Z,100694.28
2022-09-30T21:18:42.697Z,100713.56
2022-09-30T21:21:16.956Z,100564.72
2022-09-30T21:23:49.398Z,100721.88
2022-09-30T21:26:22.432Z,100723.94
2022-09-30T21:28:54.880Z,100727.25
2022-09-30T21:31:29.053Z,100737.22
2022-09-30T21:34:01.872Z,100718.53
2022-09-30T21:36:34.450Z,100726.63
2022-09-30T21:39:06.911Z,100724.16
2022-09-30T21:41:39.475Z,100725.41
2022-09-30T21:44:11.863Z,100734.31
2022-09-30T21:46:48.163Z,100715.22
2022-09-30T21:49:24.592Z,100711.25
2022-09-30T21:51:57.364Z,100713.53
2022-09-30T21:54:30.392Z,100733.25
2022-09-30T21:57:02.742Z,100742.19
2022-09-30T21:59:48.549Z,100654.50
2022-09-30T22:02:22.628Z,100747.75
2022-09-30T22:04:54.946Z,100746.28
2022-09-30T22:07:29.098Z,100676.09
2022-09-30T22:10:01.537Z,100747.34
2022-09-30T22:12:37.007Z,100761.22
2022-09-30T22:15:09.826Z,100759.41
2022-09-30T22:17:42.205Z,100760.41
2022-09-30T22:20:14.815Z,100770.38
2022-09-30T22:22:49.691Z,100769.13
2022-09-30T22:25:23.872Z,100771.19
2022-09-30T22:27:56.223Z,100770.38
2022-09-30T22:30:31.866Z,100758.75
2022-09-30T22:33:22.305Z,100734.19
2022-09-30T22:36:14.740Z,100777.44
2022-09-30T22:38:48.177Z,100768.53
2022-09-30T22:41:20.593Z,100759.63
2022-09-30T22:43:52.941Z,100763.78
2022-09-30T22:46:25.287Z,100744.28
2022-09-30T22:49:00.999Z,100760.91
2022-09-30T22:51:34.459Z,100761.97
2022-09-30T22:54:07.339Z,100764.69
2022-09-30T22:57:03.680Z,100761.38
2022-09-30T22:59:54.447Z,100765.28
2022-09-30T23:02:48.082Z,100768.41
2022-09-30T23:05:21.890Z,100777.75
2022-09-30T23:07:55.707Z,100785.63
2022-09-30T23:10:28.314Z,100796.22
2022-09-30T23:13:00.591Z,100778.81
2022-09-30T23:15:32.884Z,100792.47
2022-09-30T23:18:05.325Z,100800.38
2022-09-30T23:20:37.962Z,100805.78
2022-09-30T23:23:10.416Z,100804.75
2022-09-30T23:25:43.210Z,100805.34
2022-09-30T23:28:15.679Z,100814.91
2022-09-30T23:31:10.918Z,100820.31
2022-09-30T23:33:51.067Z,100802.03
2022-09-30T23:36:30.925Z,100748.00
2022-09-30T23:39:10.735Z,100767.13
2022-09-30T23:41:45.094Z,100832.78
2022-09-30T23:44:20.891Z,100837.56
2022-09-30T23:47:11.677Z,100816.59
2022-09-30T23:49:44.671Z,100842.75
2022-09-30T23:52:17.497Z,100845.66
2022-09-30T23:54:49.980Z,100847.34
2022-09-30T23:57:22.279Z,100859.78
2022-09-30T23:59:54.623Z,100869.34
